sensor_id;sensor_type;location;lat;lon;timestamp;P1;durP1;ratioP1;P2;durP2;ratioP2
20042;SDS011;10182;52.896;6.496;2023-08-01T00:02:23;13.30;;;10.17;;
20042;SDS011;10182;52.896;6.496;2023-08-01T00:07:25;13.00;;;9.30;;
20042;SDS011;10182;52.896;6.496;2023-08-01T00:12:29;11.30;;;7.83;;
20042;SDS011;10182;52.896;6.496;2023-08-01T00:17:31;11.03;;;7.30;;
20042;SDS011;10182;52.896;6.496;2023-08-01T00:22:33;13.53;;;8.00;;
20042;SDS011;10182;52.896;6.496;2023-08-01T00:27:36;12.67;;;8.00;;
20042;SDS011;10182;52.896;6.496;2023-08-01T00:32:37;17.83;;;8.90;;
20042;SDS011;10182;52.896;6.496;2023-08-01T00:37:39;12.83;;;8.83;;
20042;SDS011;10182;52.896;6.496;2023-08-01T00:42:42;15.67;;;9.53;;
20042;SDS011;10182;52.896;6.496;2023-08-01T00:47:44;14.70;;;10.07;;
20042;SDS011;10182;52.896;6.496;2023-08-01T00:52:46;15.03;;;10.83;;
20042;SDS011;10182;52.896;6.496;2023-08-01T00:57:49;21.10;;;11.87;;
20042;SDS011;10182;52.896;6.496;2023-08-01T01:02:51;20.30;;;11.37;;
20042;SDS011;10182;52.896;6.496;2023-08-01T01:07:53;20.00;;;11.17;;
20042;SDS011;10182;52.896;6.496;2023-08-01T01:12:57;19.23;;;10.67;;
20042;SDS011;10182;52.896;6.496;2023-08-01T01:17:58;18.03;;;11.27;;
20042;SDS011;10182;52.896;6.496;2023-08-01T01:23:01;19.20;;;10.43;;
20042;SDS011;10182;52.896;6.496;2023-08-01T01:28:05;22.00;;;10.23;;
20042;SDS011;10182;52.896;6.496;2023-08-01T01:33:08;19.57;;;9.93;;
20042;SDS011;10182;52.896;6.496;2023-08-01T01:38:12;15.13;;;8.77;;
20042;SDS011;10182;52.896;6.496;2023-08-01T01:43:14;12.80;;;7.73;;
20042;SDS011;10182;52.896;6.496;2023-08-01T01:48:16;11.67;;;6.10;;
20042;SDS011;10182;52.896;6.496;2023-08-01T01:53:19;14.83;;;6.00;;
20042;SDS011;10182;52.896;6.496;2023-08-01T01:58:20;13.47;;;6.43;;
20042;SDS011;10182;52.896;6.496;2023-08-01T02:03:22;13.43;;;6.80;;
20042;SDS011;10182;52.896;6.496;2023-08-01T02:08:25;12.60;;;6.47;;
20042;SDS011;10182;52.896;6.496;2023-08-01T02:13:27;15.27;;;6.67;;
20042;SDS011;10182;52.896;6.496;2023-08-01T02:18:29;14.23;;;6.63;;
20042;SDS011;10182;52.896;6.496;2023-08-01T02:23:32;15.13;;;6.50;;
20042;SDS011;10182;52.896;6.496;2023-08-01T02:28:36;15.23;;;6.43;;
20042;SDS011;10182;52.896;6.496;2023-08-01T02:33:38;14.17;;;7.20;;
20042;SDS011;10182;52.896;6.496;2023-08-01T02:38:41;14.37;;;6.53;;
20042;SDS011;10182;52.896;6.496;2023-08-01T02:43:42;14.77;;;7.10;;
20042;SDS011;10182;52.896;6.496;2023-08-01T02:48:44;17.77;;;7.87;;
20042;SDS011;10182;52.896;6.496;2023-08-01T02:53:47;18.80;;;9.20;;
20042;SDS011;10182;52.896;6.496;2023-08-01T02:58:49;16.67;;;8.70;;
20042;SDS011;10182;52.896;6.496;2023-08-01T03:03:52;14.57;;;8.23;;
20042;SDS011;10182;52.896;6.496;2023-08-01T03:08:55;16.97;;;9.17;;
20042;SDS011;10182;52.896;6.496;2023-08-01T03:13:56;18.03;;;8.97;;
20042;SDS011;10182;52.896;6.496;2023-08-01T03:18:58;19.20;;;9.10;;
20042;SDS011;10182;52.896;6.496;2023-08-01T03:24:05;9.93;;;5.60;;
20042;SDS011;10182;52.896;6.496;2023-08-01T03:29:08;6.57;;;3.30;;
20042;SDS011;10182;52.896;6.496;2023-08-01T03:34:10;5.50;;;3.20;;
20042;SDS011;10182;52.896;6.496;2023-08-01T03:39:14;7.27;;;3.50;;
20042;SDS011;10182;52.896;6.496;2023-08-01T03:44:15;4.10;;;2.63;;
20042;SDS011;10182;52.896;6.496;2023-08-01T03:49:17;5.10;;;2.53;;
20042;SDS011;10182;52.896;6.496;2023-08-01T03:54:20;8.97;;;2.97;;
20042;SDS011;10182;52.896;6.496;2023-08-01T03:59:22;5.07;;;2.70;;
20042;SDS011;10182;52.896;6.496;2023-08-01T04:04:24;2.80;;;1.97;;
20042;SDS011;10182;52.896;6.496;2023-08-01T04:09:27;4.30;;;1.87;;
20042;SDS011;10182;52.896;6.496;2023-08-01T04:14:29;3.40;;;1.73;;
20042;SDS011;10182;52.896;6.496;2023-08-01T04:19:30;2.33;;;1.50;;
20042;SDS011;10182;52.896;6.496;2023-08-01T04:24:33;2.43;;;1.53;;
20042;SDS011;10182;52.896;6.496;2023-08-01T04:29:35;3.70;;;1.43;;
20042;SDS011;10182;52.896;6.496;2023-08-01T04:34:37;3.73;;;1.60;;
20042;SDS011;10182;52.896;6.496;2023-08-01T04:39:40;2.27;;;1.77;;
20042;SDS011;10182;52.896;6.496;2023-08-01T04:44:42;2.23;;;1.40;;
20042;SDS011;10182;52.896;6.496;2023-08-01T04:49:43;3.37;;;1.73;;
20042;SDS011;10182;52.896;6.496;2023-08-01T04:54:46;5.43;;;1.40;;
20042;SDS011;10182;52.896;6.496;2023-08-01T04:59:48;5.03;;;1.87;;
20042;SDS011;10182;52.896;6.496;2023-08-01T05:04:50;3.60;;;1.77;;
20042;SDS011;10182;52.896;6.496;2023-08-01T05:09:54;3.97;;;1.80;;
20042;SDS011;10182;52.896;6.496;2023-08-01T05:14:55;4.03;;;2.20;;
20042;SDS011;10182;52.896;6.496;2023-08-01T05:19:57;4.30;;;2.10;;
20042;SDS011;10182;52.896;6.496;2023-08-01T05:25:00;5.07;;;2.90;;
20042;SDS011;10182;52.896;6.496;2023-08-01T05:30:04;4.40;;;2.10;;
20042;SDS011;10182;52.896;6.496;2023-08-01T05:35:06;3.67;;;2.47;;
20042;SDS011;10182;52.896;6.496;2023-08-01T05:40:11;5.10;;;2.97;;
20042;SDS011;10182;52.896;6.496;2023-08-01T05:45:13;3.30;;;2.33;;
20042;SDS011;10182;52.896;6.496;2023-08-01T05:50:14;5.00;;;2.10;;
20042;SDS011;10182;52.896;6.496;2023-08-01T05:55:17;4.43;;;2.73;;
20042;SDS011;10182;52.896;6.496;2023-08-01T06:00:20;6.10;;;3.00;;
20042;SDS011;10182;52.896;6.496;2023-08-01T06:05:22;3.43;;;2.03;;
20042;SDS011;10182;52.896;6.496;2023-08-01T06:10:25;5.40;;;3.07;;
20042;SDS011;10182;52.896;6.496;2023-08-01T06:15:26;8.73;;;2.47;;
20042;SDS011;10182;52.896;6.496;2023-08-01T06:20:28;4.77;;;2.27;;
20042;SDS011;10182;52.896;6.496;2023-08-01T06:25:31;6.97;;;2.27;;
20042;SDS011;10182;52.896;6.496;2023-08-01T06:30:33;3.07;;;2.00;;
20042;SDS011;10182;52.896;6.496;2023-08-01T06:35:34;3.77;;;2.00;;
20042;SDS011;10182;52.896;6.496;2023-08-01T06:40:38;2.90;;;1.93;;
20042;SDS011;10182;52.896;6.496;2023-08-01T06:45:39;3.73;;;1.80;;
20042;SDS011;10182;52.896;6.496;2023-08-01T06:50:41;4.33;;;1.90;;
20042;SDS011;10182;52.896;6.496;2023-08-01T06:55:44;9.07;;;2.57;;
20042;SDS011;10182;52.896;6.496;2023-08-01T07:00:46;5.80;;;2.13;;
20042;SDS011;10182;52.896;6.496;2023-08-01T07:05:47;4.33;;;2.07;;
20042;SDS011;10182;52.896;6.496;2023-08-01T07:10:50;3.80;;;2.07;;
20042;SDS011;10182;52.896;6.496;2023-08-01T07:15:52;3.80;;;1.87;;
20042;SDS011;10182;52.896;6.496;2023-08-01T07:21:00;7.37;;;2.17;;
20042;SDS011;10182;52.896;6.496;2023-08-01T07:26:03;7.23;;;1.80;;
20042;SDS011;10182;52.896;6.496;2023-08-01T07:31:05;5.70;;;2.03;;
20042;SDS011;10182;52.896;6.496;2023-08-01T07:36:08;3.53;;;1.70;;
20042;SDS011;10182;52.896;6.496;2023-08-01T07:41:11;3.13;;;1.90;;
20042;SDS011;10182;52.896;6.496;2023-08-01T07:46:12;4.87;;;1.80;;
20042;SDS011;10182;52.896;6.496;2023-08-01T07:51:14;5.30;;;2.40;;
20042;SDS011;10182;52.896;6.496;2023-08-01T07:56:17;7.07;;;2.10;;
20042;SDS011;10182;52.896;6.496;2023-08-01T08:01:19;4.37;;;2.10;;
20042;SDS011;10182;52.896;6.496;2023-08-01T08:06:21;5.00;;;1.57;;
20042;SDS011;10182;52.896;6.496;2023-08-01T08:11:25;3.50;;;2.00;;
20042;SDS011;10182;52.896;6.496;2023-08-01T08:16:26;4.13;;;2.20;;
20042;SDS011;10182;52.896;6.496;2023-08-01T08:21:28;4.33;;;1.80;;
20042;SDS011;10182;52.896;6.496;2023-08-01T08:26:31;5.13;;;2.20;;
20042;SDS011;10182;52.896;6.496;2023-08-01T08:31:34;4.33;;;1.60;;
20042;SDS011;10182;52.896;6.496;2023-08-01T08:36:35;3.63;;;1.70;;
20042;SDS011;10182;52.896;6.496;2023-08-01T08:41:39;3.13;;;1.87;;
20042;SDS011;10182;52.896;6.496;2023-08-01T08:46:48;5.50;;;2.90;;
20042;SDS011;10182;52.896;6.496;2023-08-01T08:51:51;6.73;;;2.63;;
20042;SDS011;10182;52.896;6.496;2023-08-01T08:56:55;8.10;;;3.13;;
20042;SDS011;10182;52.896;6.496;2023-08-01T09:01:57;5.13;;;2.80;;
20042;SDS011;10182;52.896;6.496;2023-08-01T09:07:02;4.67;;;2.40;;
20042;SDS011;10182;52.896;6.496;2023-08-01T09:12:09;5.57;;;2.63;;
20042;SDS011;10182;52.896;6.496;2023-08-01T09:17:11;7.67;;;3.00;;
20042;SDS011;10182;52.896;6.496;2023-08-01T09:22:16;8.63;;;3.53;;
20042;SDS011;10182;52.896;6.496;2023-08-01T09:27:20;8.30;;;3.53;;
20042;SDS011;10182;52.896;6.496;2023-08-01T09:32:22;5.80;;;3.07;;
20042;SDS011;10182;52.896;6.496;2023-08-01T09:37:24;6.33;;;2.97;;
20042;SDS011;10182;52.896;6.496;2023-08-01T09:42:27;4.67;;;2.53;;
20042;SDS011;10182;52.896;6.496;2023-08-01T09:47:39;6.63;;;2.97;;
20042;SDS011;10182;52.896;6.496;2023-08-01T09:52:41;5.17;;;2.50;;
20042;SDS011;10182;52.896;6.496;2023-08-01T09:57:45;8.17;;;3.03;;
20042;SDS011;10182;52.896;6.496;2023-08-01T10:02:50;8.23;;;2.33;;
20042;SDS011;10182;52.896;6.496;2023-08-01T10:07:54;6.07;;;2.27;;
20042;SDS011;10182;52.896;6.496;2023-08-01T10:13:01;5.23;;;2.40;;
20042;SDS011;10182;52.896;6.496;2023-08-01T10:18:03;6.70;;;2.63;;
20042;SDS011;10182;52.896;6.496;2023-08-01T10:23:05;3.60;;;2.77;;
20042;SDS011;10182;52.896;6.496;2023-08-01T10:28:11;8.10;;;3.40;;
20042;SDS011;10182;52.896;6.496;2023-08-01T10:33:12;7.67;;;2.90;;
20042;SDS011;10182;52.896;6.496;2023-08-01T10:38:15;7.87;;;2.97;;
20042;SDS011;10182;52.896;6.496;2023-08-01T10:43:22;6.53;;;2.27;;
20042;SDS011;10182;52.896;6.496;2023-08-01T10:48:24;7.10;;;3.03;;
20042;SDS011;10182;52.896;6.496;2023-08-01T10:53:26;9.80;;;3.57;;
20042;SDS011;10182;52.896;6.496;2023-08-01T10:58:40;9.43;;;3.80;;
20042;SDS011;10182;52.896;6.496;2023-08-01T11:03:42;5.87;;;2.80;;
20042;SDS011;10182;52.896;6.496;2023-08-01T11:08:44;6.00;;;2.67;;
20042;SDS011;10182;52.896;6.496;2023-08-01T11:13:53;8.13;;;2.50;;
20042;SDS011;10182;52.896;6.496;2023-08-01T11:18:56;8.60;;;2.50;;
20042;SDS011;10182;52.896;6.496;2023-08-01T11:23:58;8.20;;;2.40;;
20042;SDS011;10182;52.896;6.496;2023-08-01T11:29:02;7.33;;;2.10;;
20042;SDS011;10182;52.896;6.496;2023-08-01T11:34:04;7.10;;;2.10;;
20042;SDS011;10182;52.896;6.496;2023-08-01T11:39:08;3.83;;;1.57;;
20042;SDS011;10182;52.896;6.496;2023-08-01T11:44:11;8.87;;;2.37;;
20042;SDS011;10182;52.896;6.496;2023-08-01T11:49:13;9.47;;;2.47;;
20042;SDS011;10182;52.896;6.496;2023-08-01T11:54:16;5.67;;;2.47;;
20042;SDS011;10182;52.896;6.496;2023-08-01T11:59:19;4.50;;;1.43;;
20042;SDS011;10182;52.896;6.496;2023-08-01T12:04:24;3.90;;;1.70;;
20042;SDS011;10182;52.896;6.496;2023-08-01T12:09:31;7.47;;;2.17;;
20042;SDS011;10182;52.896;6.496;2023-08-01T12:14:38;3.43;;;2.13;;
20042;SDS011;10182;52.896;6.496;2023-08-01T12:19:40;7.13;;;2.10;;
20042;SDS011;10182;52.896;6.496;2023-08-01T12:24:42;9.87;;;2.43;;
20042;SDS011;10182;52.896;6.496;2023-08-01T12:29:45;4.97;;;2.17;;
20042;SDS011;10182;52.896;6.496;2023-08-01T12:34:47;4.03;;;1.57;;
20042;SDS011;10182;52.896;6.496;2023-08-01T12:39:48;2.27;;;1.00;;
20042;SDS011;10182;52.896;6.496;2023-08-01T12:44:51;5.10;;;1.90;;
20042;SDS011;10182;52.896;6.496;2023-08-01T12:49:53;3.30;;;1.57;;
20042;SDS011;10182;52.896;6.496;2023-08-01T12:54:55;6.13;;;2.00;;
20042;SDS011;10182;52.896;6.496;2023-08-01T12:59:58;5.77;;;2.00;;
20042;SDS011;10182;52.896;6.496;2023-08-01T13:04:59;3.70;;;1.50;;
20042;SDS011;10182;52.896;6.496;2023-08-01T13:10:01;6.27;;;2.10;;
20042;SDS011;10182;52.896;6.496;2023-08-01T13:15:06;4.23;;;1.93;;
20042;SDS011;10182;52.896;6.496;2023-08-01T13:20:08;6.67;;;2.10;;
20042;SDS011;10182;52.896;6.496;2023-08-01T13:25:10;4.03;;;1.87;;
20042;SDS011;10182;52.896;6.496;2023-08-01T13:30:13;6.67;;;2.40;;
20042;SDS011;10182;52.896;6.496;2023-08-01T13:35:17;5.60;;;1.80;;
20042;SDS011;10182;52.896;6.496;2023-08-01T13:40:19;4.17;;;1.70;;
20042;SDS011;10182;52.896;6.496;2023-08-01T13:45:22;5.47;;;1.57;;
20042;SDS011;10182;52.896;6.496;2023-08-01T13:50:25;3.93;;;1.50;;
20042;SDS011;10182;52.896;6.496;2023-08-01T13:55:27;5.27;;;1.40;;
20042;SDS011;10182;52.896;6.496;2023-08-01T14:00:30;2.33;;;1.30;;
20042;SDS011;10182;52.896;6.496;2023-08-01T14:05:32;2.87;;;1.00;;
20042;SDS011;10182;52.896;6.496;2023-08-01T14:10:34;5.27;;;1.40;;
20042;SDS011;10182;52.896;6.496;2023-08-01T14:15:37;4.53;;;1.97;;
20042;SDS011;10182;52.896;6.496;2023-08-01T14:20:38;4.97;;;1.67;;
20042;SDS011;10182;52.896;6.496;2023-08-01T14:25:40;3.53;;;1.60;;
20042;SDS011;10182;52.896;6.496;2023-08-01T14:30:43;4.53;;;1.40;;
20042;SDS011;10182;52.896;6.496;2023-08-01T14:35:45;4.17;;;1.30;;
20042;SDS011;10182;52.896;6.496;2023-08-01T14:40:46;2.70;;;1.50;;
20042;SDS011;10182;52.896;6.496;2023-08-01T14:45:49;2.40;;;1.20;;
20042;SDS011;10182;52.896;6.496;2023-08-01T14:50:51;3.87;;;1.40;;
20042;SDS011;10182;52.896;6.496;2023-08-01T14:55:56;6.63;;;1.80;;
20042;SDS011;10182;52.896;6.496;2023-08-01T15:01:01;4.00;;;1.70;;
20042;SDS011;10182;52.896;6.496;2023-08-01T15:06:06;5.30;;;1.40;;
20042;SDS011;10182;52.896;6.496;2023-08-01T15:11:08;4.03;;;1.50;;
20042;SDS011;10182;52.896;6.496;2023-08-01T15:16:11;4.57;;;1.53;;
20042;SDS011;10182;52.896;6.496;2023-08-01T15:21:13;5.37;;;1.87;;
20042;SDS011;10182;52.896;6.496;2023-08-01T15:26:15;2.50;;;1.80;;
20042;SDS011;10182;52.896;6.496;2023-08-01T15:31:18;2.07;;;1.40;;
20042;SDS011;10182;52.896;6.496;2023-08-01T15:36:23;3.97;;;1.83;;
20042;SDS011;10182;52.896;6.496;2023-08-01T15:41:27;3.10;;;1.70;;
20042;SDS011;10182;52.896;6.496;2023-08-01T15:46:30;4.13;;;1.77;;
20042;SDS011;10182;52.896;6.496;2023-08-01T15:51:33;2.80;;;1.50;;
20042;SDS011;10182;52.896;6.496;2023-08-01T15:56:35;3.37;;;1.60;;
20042;SDS011;10182;52.896;6.496;2023-08-01T16:01:38;3.20;;;1.60;;
20042;SDS011;10182;52.896;6.496;2023-08-01T16:06:40;5.17;;;1.60;;
20042;SDS011;10182;52.896;6.496;2023-08-01T16:11:42;4.53;;;2.30;;
20042;SDS011;10182;52.896;6.496;2023-08-01T16:16:45;7.67;;;1.93;;
20042;SDS011;10182;52.896;6.496;2023-08-01T16:21:47;6.43;;;2.20;;
20042;SDS011;10182;52.896;6.496;2023-08-01T16:26:50;10.97;;;2.73;;
20042;SDS011;10182;52.896;6.496;2023-08-01T16:31:53;5.50;;;2.10;;
20042;SDS011;10182;52.896;6.496;2023-08-01T16:36:55;6.70;;;2.40;;
20042;SDS011;10182;52.896;6.496;2023-08-01T16:41:57;5.10;;;1.90;;
20042;SDS011;10182;52.896;6.496;2023-08-01T16:47:00;6.03;;;2.10;;
20042;SDS011;10182;52.896;6.496;2023-08-01T16:52:02;6.87;;;2.23;;
20042;SDS011;10182;52.896;6.496;2023-08-01T16:57:04;4.63;;;2.00;;
20042;SDS011;10182;52.896;6.496;2023-08-01T17:02:07;6.20;;;2.30;;
20042;SDS011;10182;52.896;6.496;2023-08-01T17:07:09;3.70;;;2.20;;
20042;SDS011;10182;52.896;6.496;2023-08-01T17:12:11;4.63;;;1.80;;
20042;SDS011;10182;52.896;6.496;2023-08-01T17:17:14;5.70;;;1.57;;
20042;SDS011;10182;52.896;6.496;2023-08-01T17:22:16;6.40;;;1.80;;
20042;SDS011;10182;52.896;6.496;2023-08-01T17:27:18;6.40;;;2.53;;
20042;SDS011;10182;52.896;6.496;2023-08-01T17:32:21;3.80;;;1.93;;
20042;SDS011;10182;52.896;6.496;2023-08-01T17:37:22;4.60;;;1.93;;
20042;SDS011;10182;52.896;6.496;2023-08-01T17:42:24;3.87;;;2.07;;
20042;SDS011;10182;52.896;6.496;2023-08-01T17:47:27;7.57;;;2.07;;
20042;SDS011;10182;52.896;6.496;2023-08-01T17:52:29;6.47;;;2.03;;
20042;SDS011;10182;52.896;6.496;2023-08-01T17:57:31;4.00;;;2.03;;
20042;SDS011;10182;52.896;6.496;2023-08-01T18:02:34;6.60;;;2.53;;
20042;SDS011;10182;52.896;6.496;2023-08-01T18:07:35;5.33;;;2.07;;
20042;SDS011;10182;52.896;6.496;2023-08-01T18:12:37;5.47;;;2.23;;
20042;SDS011;10182;52.896;6.496;2023-08-01T18:17:40;5.77;;;2.23;;
20042;SDS011;10182;52.896;6.496;2023-08-01T18:22:42;6.30;;;2.43;;
20042;SDS011;10182;52.896;6.496;2023-08-01T18:27:44;5.43;;;2.27;;
20042;SDS011;10182;52.896;6.496;2023-08-01T18:32:47;5.60;;;2.20;;
20042;SDS011;10182;52.896;6.496;2023-08-01T18:37:48;5.27;;;2.07;;
20042;SDS011;10182;52.896;6.496;2023-08-01T18:42:50;3.80;;;2.30;;
20042;SDS011;10182;52.896;6.496;2023-08-01T18:47:59;8.83;;;2.50;;
20042;SDS011;10182;52.896;6.496;2023-08-01T18:53:00;5.07;;;2.00;;
20042;SDS011;10182;52.896;6.496;2023-08-01T18:58:02;3.93;;;2.10;;
20042;SDS011;10182;52.896;6.496;2023-08-01T19:03:06;5.47;;;2.33;;
20042;SDS011;10182;52.896;6.496;2023-08-01T19:08:09;4.53;;;2.50;;
20042;SDS011;10182;52.896;6.496;2023-08-01T19:13:10;4.60;;;2.17;;
20042;SDS011;10182;52.896;6.496;2023-08-01T19:18:13;7.97;;;2.63;;
20042;SDS011;10182;52.896;6.496;2023-08-01T19:23:15;4.03;;;2.97;;
20042;SDS011;10182;52.896;6.496;2023-08-01T19:28:17;5.60;;;2.80;;
20042;SDS011;10182;52.896;6.496;2023-08-01T19:33:21;7.53;;;3.00;;
20042;SDS011;10182;52.896;6.496;2023-08-01T19:38:23;7.17;;;3.47;;
20042;SDS011;10182;52.896;6.496;2023-08-01T19:43:25;4.63;;;2.90;;
20042;SDS011;10182;52.896;6.496;2023-08-01T19:48:29;7.80;;;3.60;;
20042;SDS011;10182;52.896;6.496;2023-08-01T19:53:31;6.20;;;3.27;;
20042;SDS011;10182;52.896;6.496;2023-08-01T19:58:33;6.67;;;3.03;;
20042;SDS011;10182;52.896;6.496;2023-08-01T20:03:36;10.00;;;3.10;;
20042;SDS011;10182;52.896;6.496;2023-08-01T20:08:37;9.17;;;3.27;;
20042;SDS011;10182;52.896;6.496;2023-08-01T20:13:39;8.30;;;2.90;;
20042;SDS011;10182;52.896;6.496;2023-08-01T20:18:42;6.67;;;2.77;;
20042;SDS011;10182;52.896;6.496;2023-08-01T20:23:44;6.73;;;2.93;;
20042;SDS011;10182;52.896;6.496;2023-08-01T20:28:45;14.63;;;3.50;;
20042;SDS011;10182;52.896;6.496;2023-08-01T20:33:49;7.70;;;3.20;;
20042;SDS011;10182;52.896;6.496;2023-08-01T20:38:50;6.30;;;3.03;;
20042;SDS011;10182;52.896;6.496;2023-08-01T20:43:52;11.80;;;3.90;;
20042;SDS011;10182;52.896;6.496;2023-08-01T20:48:55;11.80;;;3.37;;
20042;SDS011;10182;52.896;6.496;2023-08-01T20:53:57;7.03;;;3.53;;
20042;SDS011;10182;52.896;6.496;2023-08-01T20:58:59;8.87;;;3.47;;
20042;SDS011;10182;52.896;6.496;2023-08-01T21:04:02;7.17;;;3.77;;
20042;SDS011;10182;52.896;6.496;2023-08-01T21:09:04;8.10;;;4.03;;
20042;SDS011;10182;52.896;6.496;2023-08-01T21:14:06;9.93;;;4.37;;
20042;SDS011;10182;52.896;6.496;2023-08-01T21:19:09;8.97;;;4.17;;
20042;SDS011;10182;52.896;6.496;2023-08-01T21:24:11;9.73;;;3.93;;
20042;SDS011;10182;52.896;6.496;2023-08-01T21:29:12;9.73;;;3.97;;
20042;SDS011;10182;52.896;6.496;2023-08-01T21:34:15;11.97;;;4.30;;
20042;SDS011;10182;52.896;6.496;2023-08-01T21:39:17;8.03;;;4.43;;
20042;SDS011;10182;52.896;6.496;2023-08-01T21:44:19;10.27;;;4.40;;
20042;SDS011;10182;52.896;6.496;2023-08-01T21:49:22;8.83;;;3.57;;
20042;SDS011;10182;52.896;6.496;2023-08-01T21:54:24;7.67;;;3.97;;
20042;SDS011;10182;52.896;6.496;2023-08-01T21:59:27;8.63;;;4.07;;
20042;SDS011;10182;52.896;6.496;2023-08-01T22:04:30;7.63;;;3.70;;
20042;SDS011;10182;52.896;6.496;2023-08-01T22:09:32;6.93;;;4.10;;
20042;SDS011;10182;52.896;6.496;2023-08-01T22:14:34;7.07;;;3.83;;
20042;SDS011;10182;52.896;6.496;2023-08-01T22:19:37;8.20;;;3.97;;
20042;SDS011;10182;52.896;6.496;2023-08-01T22:24:39;9.77;;;3.90;;
20042;SDS011;10182;52.896;6.496;2023-08-01T22:29:41;7.67;;;4.43;;
20042;SDS011;10182;52.896;6.496;2023-08-01T22:34:44;6.63;;;3.30;;
20042;SDS011;10182;52.896;6.496;2023-08-01T22:39:45;6.93;;;3.03;;
20042;SDS011;10182;52.896;6.496;2023-08-01T22:44:47;9.00;;;3.07;;
20042;SDS011;10182;52.896;6.496;2023-08-01T22:49:50;10.03;;;3.87;;
20042;SDS011;10182;52.896;6.496;2023-08-01T22:54:52;6.37;;;3.20;;
20042;SDS011;10182;52.896;6.496;2023-08-01T22:59:53;7.87;;;3.83;;
20042;SDS011;10182;52.896;6.496;2023-08-01T23:04:56;10.03;;;4.07;;
20042;SDS011;10182;52.896;6.496;2023-08-01T23:09:59;7.70;;;4.07;;
20042;SDS011;10182;52.896;6.496;2023-08-01T23:15:03;7.93;;;4.17;;
20042;SDS011;10182;52.896;6.496;2023-08-01T23:20:08;6.63;;;4.40;;
20042;SDS011;10182;52.896;6.496;2023-08-01T23:25:10;9.83;;;5.07;;
20042;SDS011;10182;52.896;6.496;2023-08-01T23:30:12;6.83;;;5.13;;
20042;SDS011;10182;52.896;6.496;2023-08-01T23:35:15;9.97;;;5.73;;
20042;SDS011;10182;52.896;6.496;2023-08-01T23:40:17;10.40;;;6.73;;
20042;SDS011;10182;52.896;6.496;2023-08-01T23:45:19;7.50;;;6.63;;
20042;SDS011;10182;52.896;6.496;2023-08-01T23:50:23;9.37;;;6.00;;
20042;SDS011;10182;52.896;6.496;2023-08-01T23:55:24;9.10;;;5.30;;
